Terminal Aerodrome Forecast
Issued by NWS Shreveport, LA

Home | Current Version | Previous Version | Text Only | Print | Product List | Glossary On
Versions: 1 2 3 4 5 6 7 8 9 10 11 12 13 14 15
000
FTUS44 KSHV 260529
TAFTYR
TAF
KTYR 260529Z 2606/2706 17005KT P6SM FEW050 SCT120
     FM261100 19008KT P6SM VCTS SCT035CB BKN090
      TEMPO 2611/2613 -TSRA BKN050CB OVC120
     FM261400 20007KT P6SM FEW050 BKN090
     FM262000 20006KT P6SM SCT090 SCT250
     FM270000 21005KT P6SM SCT250=

USA.gov is the U.S. government's official web portal to all federal, state and local government web resources and services.